sensor_id;sensor_type;location;lat;lon;timestamp;P1;P2;P0
76045;PMS7003;64741;41.730;44.788;2023-03-31T00:01:36;0.2;0;0
76045;PMS7003;64741;41.730;44.788;2023-03-31T00:06:30;0.2;0.2;0.2
76045;PMS7003;64741;41.730;44.788;2023-03-31T00:11:28;0;0;0
76045;PMS7003;64741;41.730;44.788;2023-03-31T00:16:34;0.2;0.2;0
76045;PMS7003;64741;41.730;44.788;2023-03-31T00:21:28;0;0;0
76045;PMS7003;64741;41.730;44.788;2023-03-31T00:26:36;0;0;0
76045;PMS7003;64741;41.730;44.788;2023-03-31T00:31:28;0;0;0
76045;PMS7003;64741;41.730;44.788;2023-03-31T00:36:36;0;0;0
76045;PMS7003;64741;41.730;44.788;2023-03-31T00:41:20;0;0;0
76045;PMS7003;64741;41.730;44.788;2023-03-31T00:46:29;0;0;0
76045;PMS7003;64741;41.730;44.788;2023-03-31T00:51:36;0;0;0
76045;PMS7003;64741;41.730;44.788;2023-03-31T00:56:28;0.2;0;0
76045;PMS7003;64741;41.730;44.788;2023-03-31T01:01:36;0;0;0
76045;PMS7003;64741;41.730;44.788;2023-03-31T01:06:34;0;0;0
76045;PMS7003;64741;41.730;44.788;2023-03-31T01:11:28;0.6;0;0
76045;PMS7003;64741;41.730;44.788;2023-03-31T01:16:36;0;0;0
76045;PMS7003;64741;41.730;44.788;2023-03-31T01:26:55;0;0;0
76045;PMS7003;64741;41.730;44.788;2023-03-31T01:31:41;0;0;0
76045;PMS7003;64741;41.730;44.788;2023-03-31T01:36:33;0;0;0
76045;PMS7003;64741;41.730;44.788;2023-03-31T01:41:37;0;0;0
76045;PMS7003;64741;41.730;44.788;2023-03-31T01:46:16;0;0;0
76045;PMS7003;64741;41.730;44.788;2023-03-31T01:51:38;0;0;0
76045;PMS7003;64741;41.730;44.788;2023-03-31T01:56:34;0;0;0
76045;PMS7003;64741;41.730;44.788;2023-03-31T02:01:28;0.2;0;0
76045;PMS7003;64741;41.730;44.788;2023-03-31T02:06:29;0;0;0
76045;PMS7003;64741;41.730;44.788;2023-03-31T02:11:16;0;0;0
76045;PMS7003;64741;41.730;44.788;2023-03-31T02:16:36;0;0;0
76045;PMS7003;64741;41.730;44.788;2023-03-31T02:21:36;0;0;0
76045;PMS7003;64741;41.730;44.788;2023-03-31T02:26:30;0.2;0;0
76045;PMS7003;64741;41.730;44.788;2023-03-31T02:31:37;0;0;0
76045;PMS7003;64741;41.730;44.788;2023-03-31T02:36:30;0;0;0
76045;PMS7003;64741;41.730;44.788;2023-03-31T02:41:28;0;0;0
76045;PMS7003;64741;41.730;44.788;2023-03-31T02:46:34;0;0;0
76045;PMS7003;64741;41.730;44.788;2023-03-31T02:51:32;0;0;0
76045;PMS7003;64741;41.730;44.788;2023-03-31T02:56:41;0;0;0
76045;PMS7003;64741;41.730;44.788;2023-03-31T03:01:34;0;0;0
76045;PMS7003;64741;41.730;44.788;2023-03-31T03:06:38;0;0;0
76045;PMS7003;64741;41.730;44.788;2023-03-31T03:11:31;0;0;0
76045;PMS7003;64741;41.730;44.788;2023-03-31T03:16:15;0;0;0
76045;PMS7003;64741;41.730;44.788;2023-03-31T03:21:26;0;0;0
76045;PMS7003;64741;41.730;44.788;2023-03-31T03:26:26;0;0;0
76045;PMS7003;64741;41.730;44.788;2023-03-31T03:31:34;0;0;0
76045;PMS7003;64741;41.730;44.788;2023-03-31T03:36:34;0;0;0
76045;PMS7003;64741;41.730;44.788;2023-03-31T03:41:28;0;0;0
76045;PMS7003;64741;41.730;44.788;2023-03-31T03:46:36;0.2;0;0
76045;PMS7003;64741;41.730;44.788;2023-03-31T03:51:14;0;0;0
76045;PMS7003;64741;41.730;44.788;2023-03-31T03:56:36;0;0;0
76045;PMS7003;64741;41.730;44.788;2023-03-31T04:01:36;0;0;0
76045;PMS7003;64741;41.730;44.788;2023-03-31T04:06:28;0;0;0
76045;PMS7003;64741;41.730;44.788;2023-03-31T04:11:36;0;0;0
76045;PMS7003;64741;41.730;44.788;2023-03-31T04:16:28;0;0;0
76045;PMS7003;64741;41.730;44.788;2023-03-31T04:21:36;0.2;0;0
76045;PMS7003;64741;41.730;44.788;2023-03-31T04:26:34;0;0;0
76045;PMS7003;64741;41.730;44.788;2023-03-31T04:31:28;0.2;0;0
76045;PMS7003;64741;41.730;44.788;2023-03-31T04:36:36;0.2;0;0
76045;PMS7003;64741;41.730;44.788;2023-03-31T04:41:28;0;0;0
76045;PMS7003;64741;41.730;44.788;2023-03-31T04:46:36;0;0;0
76045;PMS7003;64741;41.730;44.788;2023-03-31T04:51:34;0;0;0
76045;PMS7003;64741;41.730;44.788;2023-03-31T04:56:28;0;0;0
76045;PMS7003;64741;41.730;44.788;2023-03-31T05:01:36;0;0;0
76045;PMS7003;64741;41.730;44.788;2023-03-31T05:06:28;0;0;0
76045;PMS7003;64741;41.730;44.788;2023-03-31T05:11:28;0;0;0
76045;PMS7003;64741;41.730;44.788;2023-03-31T05:16:34;0;0;0
76045;PMS7003;64741;41.730;44.788;2023-03-31T05:21:30;0;0;0
76045;PMS7003;64741;41.730;44.788;2023-03-31T05:26:36;0.4;0;0
76045;PMS7003;64741;41.730;44.788;2023-03-31T05:31:28;0;0;0
76045;PMS7003;64741;41.730;44.788;2023-03-31T05:36:36;0;0;0
76045;PMS7003;64741;41.730;44.788;2023-03-31T05:41:34;0;0;0
76045;PMS7003;64741;41.730;44.788;2023-03-31T05:46:28;0;0;0
76045;PMS7003;64741;41.730;44.788;2023-03-31T05:51:22;0.2;0;0
76045;PMS7003;64741;41.730;44.788;2023-03-31T05:56:30;0;0;0
76045;PMS7003;64741;41.730;44.788;2023-03-31T06:01:36;0;0;0
76045;PMS7003;64741;41.730;44.788;2023-03-31T06:06:36;0;0;0
76045;PMS7003;64741;41.730;44.788;2023-03-31T06:11:28;0.8;0;0
76045;PMS7003;64741;41.730;44.788;2023-03-31T06:16:36;1.2;1.2;1
76045;PMS7003;64741;41.730;44.788;2023-03-31T06:21:28;0.8;0.4;0.4
76045;PMS7003;64741;41.730;44.788;2023-03-31T06:26:36;1.4;0.8;0.6
76045;PMS7003;64741;41.730;44.788;2023-03-31T06:31:34;0.8;0.8;0.4
76045;PMS7003;64741;41.730;44.788;2023-03-31T06:36:30;1.8;1.4;0.6
76045;PMS7003;64741;41.730;44.788;2023-03-31T06:41:36;1.6;0.6;0.4
76045;PMS7003;64741;41.730;44.788;2023-03-31T06:46:26;1.8;1;0.4
76045;PMS7003;64741;41.730;44.788;2023-03-31T06:51:34;0.6;0.6;0.4
76045;PMS7003;64741;41.730;44.788;2023-03-31T06:56:34;1.4;1;0.8
76045;PMS7003;64741;41.730;44.788;2023-03-31T07:01:26;4.4;4.4;2.6
76045;PMS7003;64741;41.730;44.788;2023-03-31T07:06:14;6.6;5.4;4.2
76045;PMS7003;64741;41.730;44.788;2023-03-31T07:11:30;4.4;4.2;3.2
76045;PMS7003;64741;41.730;44.788;2023-03-31T07:16:36;5.2;4.6;3.6
76045;PMS7003;64741;41.730;44.788;2023-03-31T07:21:34;4.4;4.2;3
76045;PMS7003;64741;41.730;44.788;2023-03-31T07:26:28;4.2;3.8;2.8
76045;PMS7003;64741;41.730;44.788;2023-03-31T07:31:36;3.8;3.2;2.4
76045;PMS7003;64741;41.730;44.788;2023-03-31T07:36:30;4;3.6;2.8
76045;PMS7003;64741;41.730;44.788;2023-03-31T07:41:36;4.8;4;2.8
76045;PMS7003;64741;41.730;44.788;2023-03-31T07:46:36;2.6;2.4;2
76045;PMS7003;64741;41.730;44.788;2023-03-31T07:51:30;5.4;4.4;3
76045;PMS7003;64741;41.730;44.788;2023-03-31T07:56:36;6;5;3.6
76045;PMS7003;64741;41.730;44.788;2023-03-31T08:01:28;7.4;5.4;3.6
76045;PMS7003;64741;41.730;44.788;2023-03-31T08:06:36;8.4;6.4;3.4
76045;PMS7003;64741;41.730;44.788;2023-03-31T08:11:22;5.6;5;3.2
76045;PMS7003;64741;41.730;44.788;2023-03-31T08:16:30;3.4;2.6;1.4
76045;PMS7003;64741;41.730;44.788;2023-03-31T08:21:36;4.6;3.8;2.6
76045;PMS7003;64741;41.730;44.788;2023-03-31T08:26:30;3.4;2.6;1.6
76045;PMS7003;64741;41.730;44.788;2023-03-31T08:31:36;3;2.6;1.8
76045;PMS7003;64741;41.730;44.788;2023-03-31T08:36:36;3.5;2.8;2
76045;PMS7003;64741;41.730;44.788;2023-03-31T08:41:32;2.8;2.2;2
76045;PMS7003;64741;41.730;44.788;2023-03-31T08:46:36;2.2;1.4;0.8
76045;PMS7003;64741;41.730;44.788;2023-03-31T08:51:29;2.2;1.6;1
76045;PMS7003;64741;41.730;44.788;2023-03-31T08:56:37;1;1;0.8
76045;PMS7003;64741;41.730;44.788;2023-03-31T09:01:36;2.2;1.6;0.8
76045;PMS7003;64741;41.730;44.788;2023-03-31T09:06:30;6;4.6;3.6
76045;PMS7003;64741;41.730;44.788;2023-03-31T09:11:34;10.8;9.2;7.2
76045;PMS7003;64741;41.730;44.788;2023-03-31T09:16:31;7.6;7.2;5.8
76045;PMS7003;64741;41.730;44.788;2023-03-31T09:21:36;6.4;5.6;3.8
76045;PMS7003;64741;41.730;44.788;2023-03-31T09:26:36;4;3.8;2.8
76045;PMS7003;64741;41.730;44.788;2023-03-31T09:31:22;4.4;3.2;2.6
76045;PMS7003;64741;41.730;44.788;2023-03-31T09:36:36;5;4.4;3
76045;PMS7003;64741;41.730;44.788;2023-03-31T09:41:30;3.8;3.2;2.4
76045;PMS7003;64741;41.730;44.788;2023-03-31T09:46:28;4.6;3.8;3
76045;PMS7003;64741;41.730;44.788;2023-03-31T09:51:36;2.4;2.2;1.4
76045;PMS7003;64741;41.730;44.788;2023-03-31T09:56:31;2.2;2.2;1.6
76045;PMS7003;64741;41.730;44.788;2023-03-31T10:01:34;1.6;1.4;1
76045;PMS7003;64741;41.730;44.788;2023-03-31T10:06:28;4;2.6;1.6
76045;PMS7003;64741;41.730;44.788;2023-03-31T10:11:38;2;1.4;0.8
76045;PMS7003;64741;41.730;44.788;2023-03-31T10:16:41;3.4;2.4;1.6
76045;PMS7003;64741;41.730;44.788;2023-03-31T10:21:34;3;2.6;1.8
76045;PMS7003;64741;41.730;44.788;2023-03-31T10:26:34;2.2;2.2;1.4
76045;PMS7003;64741;41.730;44.788;2023-03-31T10:31:33;3;2.4;1.6
76045;PMS7003;64741;41.730;44.788;2023-03-31T10:36:36;1.4;1.4;1
76045;PMS7003;64741;41.730;44.788;2023-03-31T10:41:34;0.4;0.4;0.2
76045;PMS7003;64741;41.730;44.788;2023-03-31T10:46:45;3;1.2;0.8
76045;PMS7003;64741;41.730;44.788;2023-03-31T10:51:23;1.8;1;0.4
76045;PMS7003;64741;41.730;44.788;2023-03-31T10:56:33;1;1;0.2
76045;PMS7003;64741;41.730;44.788;2023-03-31T11:01:41;0.8;0.8;0.4
76045;PMS7003;64741;41.730;44.788;2023-03-31T11:06:38;2;1.2;1
76045;PMS7003;64741;41.730;44.788;2023-03-31T11:11:31;0.6;0.6;0.2
76045;PMS7003;64741;41.730;44.788;2023-03-31T11:16:37;0.8;0.6;0.6
76045;PMS7003;64741;41.730;44.788;2023-03-31T11:21:31;1;0.6;0
76045;PMS7003;64741;41.730;44.788;2023-03-31T11:26:38;1.6;0.8;0.4
76045;PMS7003;64741;41.730;44.788;2023-03-31T11:31:38;4;2.6;2
76045;PMS7003;64741;41.730;44.788;2023-03-31T11:36:31;3.2;2.6;2
76045;PMS7003;64741;41.730;44.788;2023-03-31T11:41:35;3.2;3;2
76045;PMS7003;64741;41.730;44.788;2023-03-31T11:46:31;3;2.6;2
76045;PMS7003;64741;41.730;44.788;2023-03-31T11:51:37;4.8;3.6;3.2
76045;PMS7003;64741;41.730;44.788;2023-03-31T11:56:34;3.2;3;2.2
76045;PMS7003;64741;41.730;44.788;2023-03-31T12:01:24;5.2;3.8;3
76045;PMS7003;64741;41.730;44.788;2023-03-31T12:06:35;5.6;5;3.4
76045;PMS7003;64741;41.730;44.788;2023-03-31T12:11:31;5;4.6;3.6
76045;PMS7003;64741;41.730;44.788;2023-03-31T12:16:37;6;4.2;3.4
76045;PMS7003;64741;41.730;44.788;2023-03-31T12:21:36;5.2;5.2;4
76045;PMS7003;64741;41.730;44.788;2023-03-31T12:26:33;5.8;5;3.8
76045;PMS7003;64741;41.730;44.788;2023-03-31T12:31:36;6.4;5.6;4.6
76045;PMS7003;64741;41.730;44.788;2023-03-31T12:36:34;6.2;6.2;4.8
76045;PMS7003;64741;41.730;44.788;2023-03-31T12:41:37;8;7.2;6
76045;PMS7003;64741;41.730;44.788;2023-03-31T12:46:41;9;7.2;5.6
76045;PMS7003;64741;41.730;44.788;2023-03-31T12:51:36;7.4;6.2;4.2
76045;PMS7003;64741;41.730;44.788;2023-03-31T12:57:41;8;6;4.4
76045;PMS7003;64741;41.730;44.788;2023-03-31T13:01:17;7.4;6.6;5
76045;PMS7003;64741;41.730;44.788;2023-03-31T13:06:45;7.2;6.6;5.4
76045;PMS7003;64741;41.730;44.788;2023-03-31T13:11:36;8.2;6.6;5.2
76045;PMS7003;64741;41.730;44.788;2023-03-31T13:16:28;7;5.8;4.6
76045;PMS7003;64741;41.730;44.788;2023-03-31T13:21:50;5.6;5.4;4.4
76045;PMS7003;64741;41.730;44.788;2023-03-31T13:26:37;6.4;6;4.8
76045;PMS7003;64741;41.730;44.788;2023-03-31T13:31:36;5.8;4.8;3.8
76045;PMS7003;64741;41.730;44.788;2023-03-31T13:36:42;5.2;4.6;3.4
76045;PMS7003;64741;41.730;44.788;2023-03-31T13:41:36;5;4.6;3.6
76045;PMS7003;64741;41.730;44.788;2023-03-31T13:46:32;4.8;3.3;2.3
76045;PMS7003;64741;41.730;44.788;2023-03-31T13:51:22;4.8;4.6;3
76045;PMS7003;64741;41.730;44.788;2023-03-31T13:56:33;4.6;4.4;3
76045;PMS7003;64741;41.730;44.788;2023-03-31T14:06:37;5.4;4.6;4
76045;PMS7003;64741;41.730;44.788;2023-03-31T14:11:30;4.2;3.6;3
76045;PMS7003;64741;41.730;44.788;2023-03-31T14:16:36;4.2;4;3
76045;PMS7003;64741;41.730;44.788;2023-03-31T14:21:31;4;3.6;2.6
76045;PMS7003;64741;41.730;44.788;2023-03-31T14:26:40;4.2;4;3
76045;PMS7003;64741;41.730;44.788;2023-03-31T14:31:36;4.8;4.4;4.2
76045;PMS7003;64741;41.730;44.788;2023-03-31T14:36:31;4.8;3.8;3
76045;PMS7003;64741;41.730;44.788;2023-03-31T14:41:36;3.8;3.2;2.6
76045;PMS7003;64741;41.730;44.788;2023-03-31T14:46:29;3.2;3.2;2.8
76045;PMS7003;64741;41.730;44.788;2023-03-31T14:51:36;2.8;2.2;2
76045;PMS7003;64741;41.730;44.788;2023-03-31T14:56:33;3;3;2.2
76045;PMS7003;64741;41.730;44.788;2023-03-31T15:01:29;3.2;2.8;2
76045;PMS7003;64741;41.730;44.788;2023-03-31T15:06:36;2.4;1.8;1.4
76045;PMS7003;64741;41.730;44.788;2023-03-31T15:11:28;1.6;1.4;1
76045;PMS7003;64741;41.730;44.788;2023-03-31T15:16:37;1.8;1.6;1.2
76045;PMS7003;64741;41.730;44.788;2023-03-31T15:21:35;2.4;1.4;1.4
76045;PMS7003;64741;41.730;44.788;2023-03-31T15:26:30;1.6;1.2;1
76045;PMS7003;64741;41.730;44.788;2023-03-31T15:31:38;1.2;0.8;0.4
76045;PMS7003;64741;41.730;44.788;2023-03-31T15:36:31;0.8;0.8;0.6
76045;PMS7003;64741;41.730;44.788;2023-03-31T15:41:34;0.8;0.6;0.4
76045;PMS7003;64741;41.730;44.788;2023-03-31T15:46:54;1.4;1;0.2
76045;PMS7003;64741;41.730;44.788;2023-03-31T15:51:31;0.4;0.2;0
76045;PMS7003;64741;41.730;44.788;2023-03-31T15:56:39;1;0.2;0.2
76045;PMS7003;64741;41.730;44.788;2023-03-31T16:01:31;0.6;0;0
76045;PMS7003;64741;41.730;44.788;2023-03-31T16:06:38;0.4;0.4;0.2
76045;PMS7003;64741;41.730;44.788;2023-03-31T16:11:35;0.2;0.2;0.2
76045;PMS7003;64741;41.730;44.788;2023-03-31T16:16:28;0.4;0;0
76045;PMS7003;64741;41.730;44.788;2023-03-31T16:21:37;0.4;0.2;0
76045;PMS7003;64741;41.730;44.788;2023-03-31T16:26:30;0.8;0.6;0.2
76045;PMS7003;64741;41.730;44.788;2023-03-31T16:31:37;0.4;0;0
76045;PMS7003;64741;41.730;44.788;2023-03-31T16:36:36;0.6;0.2;0.2
76045;PMS7003;64741;41.730;44.788;2023-03-31T16:41:28;0.6;0.6;0.2
76045;PMS7003;64741;41.730;44.788;2023-03-31T16:46:36;0.2;0;0
76045;PMS7003;64741;41.730;44.788;2023-03-31T16:51:28;0.6;0.2;0
76045;PMS7003;64741;41.730;44.788;2023-03-31T16:56:34;0.2;0.2;0.2
76045;PMS7003;64741;41.730;44.788;2023-03-31T17:01:34;0.2;0.2;0
76045;PMS7003;64741;41.730;44.788;2023-03-31T17:06:26;0.2;0.2;0
76045;PMS7003;64741;41.730;44.788;2023-03-31T17:11:22;0.4;0.2;0
76045;PMS7003;64741;41.730;44.788;2023-03-31T17:16:28;0;0;0
76045;PMS7003;64741;41.730;44.788;2023-03-31T17:21:34;0.8;0.2;0.2
76045;PMS7003;64741;41.730;44.788;2023-03-31T17:26:34;0.8;0.2;0
76045;PMS7003;64741;41.730;44.788;2023-03-31T17:31:30;0;0;0
76045;PMS7003;64741;41.730;44.788;2023-03-31T17:36:34;0.2;0.2;0.2
76045;PMS7003;64741;41.730;44.788;2023-03-31T17:41:28;0.2;0;0
76045;PMS7003;64741;41.730;44.788;2023-03-31T17:46:36;0;0;0
76045;PMS7003;64741;41.730;44.788;2023-03-31T17:51:37;0;0;0
76045;PMS7003;64741;41.730;44.788;2023-03-31T17:56:28;0.4;0;0
76045;PMS7003;64741;41.730;44.788;2023-03-31T18:01:35;0.4;0;0
76045;PMS7003;64741;41.730;44.788;2023-03-31T18:06:30;0;0;0
76045;PMS7003;64741;41.730;44.788;2023-03-31T18:11:38;0;0;0
76045;PMS7003;64741;41.730;44.788;2023-03-31T18:16:34;0;0;0
76045;PMS7003;64741;41.730;44.788;2023-03-31T18:21:28;0;0;0
76045;PMS7003;64741;41.730;44.788;2023-03-31T18:26:36;0;0;0
76045;PMS7003;64741;41.730;44.788;2023-03-31T18:31:30;0;0;0
76045;PMS7003;64741;41.730;44.788;2023-03-31T18:36:34;1;0.6;0.4
76045;PMS7003;64741;41.730;44.788;2023-03-31T18:41:28;0.6;0.6;0.4
76045;PMS7003;64741;41.730;44.788;2023-03-31T18:46:28;1.8;0.8;0.5
76045;PMS7003;64741;41.730;44.788;2023-03-31T18:51:20;1.7;1.3;0.7
76045;PMS7003;64741;41.730;44.788;2023-03-31T18:56:28;2.5;1;0.8
76045;PMS7003;64741;41.730;44.788;2023-03-31T19:01:36;0.8;0.6;0.4
76045;PMS7003;64741;41.730;44.788;2023-03-31T19:06:34;0.2;0.2;0.2
76045;PMS7003;64741;41.730;44.788;2023-03-31T19:11:28;0.8;0.8;0.4
76045;PMS7003;64741;41.730;44.788;2023-03-31T19:16:34;0.2;0.2;0.2
76045;PMS7003;64741;41.730;44.788;2023-03-31T19:21:28;0.6;0.6;0
76045;PMS7003;64741;41.730;44.788;2023-03-31T19:26:36;1;1;0.4
76045;PMS7003;64741;41.730;44.788;2023-03-31T19:31:32;0.4;0.4;0.2
76045;PMS7003;64741;41.730;44.788;2023-03-31T19:36:28;0.2;0.2;0.2
76045;PMS7003;64741;41.730;44.788;2023-03-31T19:41:35;0.2;0.2;0
76045;PMS7003;64741;41.730;44.788;2023-03-31T19:46:28;0.4;0.2;0.2
76045;PMS7003;64741;41.730;44.788;2023-03-31T19:51:36;0.4;0.4;0.2
76045;PMS7003;64741;41.730;44.788;2023-03-31T19:56:34;0;0;0
76045;PMS7003;64741;41.730;44.788;2023-03-31T20:01:27;0.4;0.4;0
76045;PMS7003;64741;41.730;44.788;2023-03-31T20:06:34;0.6;0;0
76045;PMS7003;64741;41.730;44.788;2023-03-31T20:11:29;0.4;0.2;0.2
76045;PMS7003;64741;41.730;44.788;2023-03-31T20:16:38;0.4;0.2;0
76045;PMS7003;64741;41.730;44.788;2023-03-31T20:21:36;0.4;0;0
76045;PMS7003;64741;41.730;44.788;2023-03-31T20:26:31;0;0;0
76045;PMS7003;64741;41.730;44.788;2023-03-31T20:31:36;0;0;0
76045;PMS7003;64741;41.730;44.788;2023-03-31T20:36:28;0;0;0
76045;PMS7003;64741;41.730;44.788;2023-03-31T20:41:36;0.2;0.2;0.2
76045;PMS7003;64741;41.730;44.788;2023-03-31T20:46:34;0;0;0
76045;PMS7003;64741;41.730;44.788;2023-03-31T20:51:29;0;0;0
76045;PMS7003;64741;41.730;44.788;2023-03-31T20:55:58;0.2;0;0
76045;PMS7003;64741;41.730;44.788;2023-03-31T21:01:27;0.2;0;0
76045;PMS7003;64741;41.730;44.788;2023-03-31T21:06:39;0;0;0
76045;PMS7003;64741;41.730;44.788;2023-03-31T21:11:34;0;0;0
76045;PMS7003;64741;41.730;44.788;2023-03-31T21:16:28;0;0;0
76045;PMS7003;64741;41.730;44.788;2023-03-31T21:21:36;0;0;0
76045;PMS7003;64741;41.730;44.788;2023-03-31T21:26:28;0.2;0;0
76045;PMS7003;64741;41.730;44.788;2023-03-31T21:31:38;0.2;0.2;0
76045;PMS7003;64741;41.730;44.788;2023-03-31T21:36:28;0;0;0
76045;PMS7003;64741;41.730;44.788;2023-03-31T21:41:32;0;0;0
76045;PMS7003;64741;41.730;44.788;2023-03-31T21:46:38;0;0;0
76045;PMS7003;64741;41.730;44.788;2023-03-31T21:51:30;0;0;0
76045;PMS7003;64741;41.730;44.788;2023-03-31T21:56:38;0;0;0
76045;PMS7003;64741;41.730;44.788;2023-03-31T22:01:30;0.4;0;0
76045;PMS7003;64741;41.730;44.788;2023-03-31T22:06:32;0;0;0
76045;PMS7003;64741;41.730;44.788;2023-03-31T22:11:30;0.2;0;0
76045;PMS7003;64741;41.730;44.788;2023-03-31T22:16:28;0;0;0
76045;PMS7003;64741;41.730;44.788;2023-03-31T22:21:38;0;0;0
76045;PMS7003;64741;41.730;44.788;2023-03-31T22:26:29;0;0;0
76045;PMS7003;64741;41.730;44.788;2023-03-31T22:31:30;0;0;0
76045;PMS7003;64741;41.730;44.788;2023-03-31T22:36:36;0;0;0
76045;PMS7003;64741;41.730;44.788;2023-03-31T22:41:28;0;0;0
76045;PMS7003;64741;41.730;44.788;2023-03-31T22:46:36;0.4;0;0
76045;PMS7003;64741;41.730;44.788;2023-03-31T22:51:28;0;0;0
76045;PMS7003;64741;41.730;44.788;2023-03-31T22:56:28;0;0;0
76045;PMS7003;64741;41.730;44.788;2023-03-31T23:01:39;0;0;0
76045;PMS7003;64741;41.730;44.788;2023-03-31T23:06:28;0;0;0
76045;PMS7003;64741;41.730;44.788;2023-03-31T23:11:38;0;0;0
76045;PMS7003;64741;41.730;44.788;2023-03-31T23:16:29;0;0;0
76045;PMS7003;64741;41.730;44.788;2023-03-31T23:21:30;0;0;0
76045;PMS7003;64741;41.730;44.788;2023-03-31T23:26:36;0;0;0
76045;PMS7003;64741;41.730;44.788;2023-03-31T23:31:31;0;0;0
76045;PMS7003;64741;41.730;44.788;2023-03-31T23:36:40;0.2;0;0
76045;PMS7003;64741;41.730;44.788;2023-03-31T23:41:28;0;0;0
76045;PMS7003;64741;41.730;44.788;2023-03-31T23:46:31;0.2;0;0
76045;PMS7003;64741;41.730;44.788;2023-03-31T23:51:34;0;0;0
76045;PMS7003;64741;41.730;44.788;2023-03-31T23:56:30;0;0;0
